Hixon, Canada
Current Conditions -  °F | °C
As of 8:05 AM on Saturday 25 Oct 2014 (Local Time) from CYQZ Reporting Station
Light Rain Light Rain  
Wind Chill: 30°   Ceiling: 4300
Heat Index: 34°   Visibility: 9mi
Dew Point: 34°   Wind: 5mph
Humidity: 100%   Direction: 360°N
Pressure: 29.68"   Gusts: NA
Location:  53.4°N, 122.57°W
Report Text: CYQZ 251505Z AUTO 36004KT 310V020 9SM -RA OVC043 01/01 A2968 RMK SLP073
Loading
Personal Weather Stations






























Interactive Weather Map
Tropical Storm Tracking
New forecast layout! Learn more

10-Day Weather Forecast

Advertisements
Track Severe Weather on mobile